createdAt,value
2018-12-17T00:02:14.954Z,101207.31
2018-12-17T00:04:47.724Z,101206.07
2018-12-17T00:07:20.404Z,101205.05
2018-12-17T00:09:51.134Z,101207.80
2018-12-17T00:12:22.122Z,101197.16
2018-12-17T00:14:54.870Z,101208.00
2018-12-17T00:17:28.540Z,101209.81
2018-12-17T00:19:59.079Z,101210.89
2018-12-17T00:22:29.667Z,101207.17
2018-12-17T00:25:00.357Z,101210.52
2018-12-17T00:27:30.898Z,101209.66
2018-12-17T00:30:01.535Z,101204.38
2018-12-17T00:32:32.382Z,101204.73
2018-12-17T00:35:03.149Z,101200.82
2018-12-17T00:37:33.883Z,101205.36
2018-12-17T00:42:49.374Z,101204.88
2018-12-17T00:45:20.370Z,101209.14
2018-12-17T00:47:51.061Z,101212.70
2018-12-17T00:50:21.557Z,101212.86
2018-12-17T00:52:52.052Z,101206.77
2018-12-17T00:55:22.549Z,101210.58
2018-12-17T00:57:53.106Z,101216.32
2018-12-17T01:00:23.617Z,101211.20
2018-12-17T01:02:54.486Z,101211.94
2018-12-17T01:05:25.018Z,101211.84
2018-12-17T01:07:55.510Z,101214.00
2018-12-17T01:10:26.042Z,101212.03
2018-12-17T01:12:57.491Z,101214.97
2018-12-17T01:15:27.957Z,101223.11
2018-12-17T01:17:58.521Z,101215.50
2018-12-17T01:20:28.962Z,101217.48
2018-12-17T01:22:59.499Z,101219.77
2018-12-17T01:25:30.024Z,101231.95
2018-12-17T01:28:00.629Z,101230.06
2018-12-17T01:30:31.251Z,101234.39
2018-12-17T01:33:01.809Z,101232.12
2018-12-17T01:35:32.340Z,101238.13
2018-12-17T01:38:02.902Z,101236.25
2018-12-17T01:40:33.598Z,101241.38
2018-12-17T01:43:04.173Z,101244.39
2018-12-17T01:45:34.721Z,101240.19
2018-12-17T01:48:05.318Z,101249.19
2018-12-17T01:50:35.852Z,101248.97
2018-12-17T01:53:06.410Z,101248.68
2018-12-17T01:55:37.212Z,101244.19
2018-12-17T01:58:07.683Z,101244.39
2018-12-17T02:00:39.462Z,101242.42
2018-12-17T02:03:09.958Z,101239.03
2018-12-17T02:05:40.539Z,101242.14
2018-12-17T02:08:11.077Z,101237.73
2018-12-17T02:10:48.143Z,101241.37
2018-12-17T02:13:18.710Z,101241.00
2018-12-17T02:15:49.202Z,101236.26
2018-12-17T02:18:19.775Z,101234.11
2018-12-17T02:20:50.269Z,101238.22
2018-12-17T02:23:20.873Z,101239.01
2018-12-17T02:25:51.538Z,101241.00
2018-12-17T02:28:22.097Z,101249.70
2018-12-17T02:30:52.613Z,101246.45
2018-12-17T02:33:23.153Z,101246.00
2018-12-17T02:35:53.663Z,101243.48
2018-12-17T02:38:24.324Z,101240.03
2018-12-17T02:40:54.882Z,101250.34
2018-12-17T02:43:25.417Z,101254.80
2018-12-17T02:45:55.912Z,101254.73
2018-12-17T02:48:26.468Z,101253.59
2018-12-17T02:50:57.060Z,101258.89
2018-12-17T02:53:27.728Z,101258.12
2018-12-17T02:55:58.246Z,101257.39
2018-12-17T02:58:28.784Z,101262.00
2018-12-17T03:00:59.333Z,101262.02
2018-12-17T03:03:29.842Z,101259.80
2018-12-17T03:06:00.609Z,101261.31
2018-12-17T03:08:31.136Z,101256.18
2018-12-17T03:11:01.710Z,101258.98
2018-12-17T03:13:32.285Z,101263.47
2018-12-17T03:16:02.880Z,101264.72
2018-12-17T03:18:33.440Z,101263.00
2018-12-17T03:21:04.031Z,101255.02
2018-12-17T03:23:34.575Z,101257.34
2018-12-17T03:26:05.108Z,101262.81
2018-12-17T03:28:35.626Z,101264.66
2018-12-17T03:31:06.195Z,101264.76
2018-12-17T03:33:36.949Z,101260.70
2018-12-17T03:36:07.486Z,101263.38
2018-12-17T03:38:38.008Z,101262.78
2018-12-17T03:41:08.614Z,101266.44
2018-12-17T03:43:39.203Z,101261.31
2018-12-17T03:46:09.741Z,101258.05
2018-12-17T03:48:40.281Z,101258.44
2018-12-17T03:51:10.849Z,101258.80
2018-12-17T03:53:41.374Z,101261.59
2018-12-17T03:56:11.931Z,101260.66
2018-12-17T03:58:42.454Z,101258.06
2018-12-17T04:01:12.932Z,101262.23
2018-12-17T04:03:43.466Z,101262.38
2018-12-17T04:06:13.943Z,101254.05
2018-12-17T04:08:44.482Z,101253.89
2018-12-17T04:11:15.039Z,101259.05
2018-12-17T04:13:45.584Z,101258.45
2018-12-17T04:16:16.154Z,101263.74
2018-12-17T04:18:46.692Z,101264.81
2018-12-17T04:21:17.323Z,101260.38
2018-12-17T04:23:47.856Z,101272.04
2018-12-17T04:26:20.395Z,101277.77
2018-12-17T04:28:50.904Z,101273.61
2018-12-17T04:31:21.481Z,101271.06
2018-12-17T04:33:52.091Z,101267.83
2018-12-17T04:36:22.681Z,101269.73
2018-12-17T04:38:53.288Z,101273.47
2018-12-17T04:41:23.912Z,101282.77
2018-12-17T04:43:54.495Z,101281.75
2018-12-17T04:46:25.150Z,101279.00
2018-12-17T04:48:55.734Z,101274.26
2018-12-17T04:51:26.394Z,101287.11
2018-12-17T04:53:56.885Z,101290.80
2018-12-17T04:56:27.438Z,101288.27
2018-12-17T04:58:57.945Z,101290.67
2018-12-17T05:01:28.521Z,101289.69
2018-12-17T05:03:59.057Z,101283.39
2018-12-17T05:06:29.660Z,101281.58
2018-12-17T05:09:00.282Z,101281.91
2018-12-17T05:11:30.975Z,101285.45
2018-12-17T05:14:01.736Z,101288.90
2018-12-17T05:16:33.354Z,101298.09
2018-12-17T05:19:03.858Z,101298.36
2018-12-17T05:21:34.444Z,101300.09
2018-12-17T05:24:04.958Z,101302.05
2018-12-17T05:26:35.515Z,101300.02
2018-12-17T05:29:06.111Z,101299.13
2018-12-17T05:31:36.719Z,101305.57
2018-12-17T05:34:07.267Z,101311.98
2018-12-17T05:36:37.774Z,101311.27
2018-12-17T05:39:08.686Z,101315.75
2018-12-17T05:41:39.339Z,101323.50
2018-12-17T05:44:09.881Z,101326.42
2018-12-17T05:46:40.489Z,101327.88
2018-12-17T05:49:11.255Z,101324.16
2018-12-17T05:51:41.821Z,101335.75
2018-12-17T05:54:12.503Z,101335.91
2018-12-17T05:56:43.130Z,101337.52
2018-12-17T05:59:13.650Z,101336.37
2018-12-17T06:01:44.255Z,101345.34
2018-12-17T06:04:14.853Z,101347.69
2018-12-17T06:06:45.452Z,101344.66
2018-12-17T06:09:16.698Z,101350.42
2018-12-17T06:11:47.345Z,101361.94
2018-12-17T06:14:17.946Z,101360.90
2018-12-17T06:16:48.510Z,101353.91
2018-12-17T06:19:19.194Z,101361.12
2018-12-17T06:21:49.742Z,101355.85
2018-12-17T06:24:20.888Z,101358.31
2018-12-17T06:26:51.382Z,101363.18
2018-12-17T06:29:21.931Z,101362.42
2018-12-17T06:31:52.505Z,101370.90
2018-12-17T06:34:26.098Z,101374.10
2018-12-17T06:36:57.897Z,101382.13
2018-12-17T06:39:28.395Z,101388.62
2018-12-17T06:41:58.966Z,101387.55
2018-12-17T06:44:29.527Z,101389.69
2018-12-17T06:47:00.145Z,101398.32
2018-12-17T06:49:30.714Z,101399.78
2018-12-17T06:52:01.409Z,101407.13
2018-12-17T06:54:31.995Z,101400.01
2018-12-17T06:57:02.586Z,101405.17
2018-12-17T06:59:33.153Z,101412.63
2018-12-17T07:02:04.142Z,101412.12
2018-12-17T07:04:34.663Z,101415.27
2018-12-17T07:07:05.211Z,101420.00
2018-12-17T07:09:35.701Z,101420.08
2018-12-17T07:12:06.274Z,101422.73
2018-12-17T07:14:36.868Z,101432.22
2018-12-17T07:17:07.500Z,101435.00
2018-12-17T07:19:38.136Z,101424.83
2018-12-17T07:22:08.732Z,101437.72
2018-12-17T07:24:39.333Z,101434.13
2018-12-17T07:27:09.924Z,101442.52
2018-12-17T07:29:40.513Z,101428.64
2018-12-17T07:32:11.080Z,101432.79
2018-12-17T07:34:42.089Z,101440.19
2018-12-17T07:37:12.704Z,101441.59
2018-12-17T07:39:43.598Z,101445.11
2018-12-17T07:42:14.117Z,101442.88
2018-12-17T07:44:44.610Z,101448.98
2018-12-17T07:47:15.180Z,101451.41
2018-12-17T07:49:45.707Z,101452.37
2018-12-17T07:52:16.242Z,101458.98
2018-12-17T07:54:46.834Z,101450.19
2018-12-17T07:57:17.296Z,101455.05
2018-12-17T07:59:47.945Z,101455.95
2018-12-17T08:02:18.546Z,101457.57
2018-12-17T08:04:49.130Z,101459.41
2018-12-17T08:07:19.675Z,101465.84
2018-12-17T08:09:50.207Z,101474.10
2018-12-17T08:12:20.718Z,101485.88
2018-12-17T08:14:51.484Z,101491.28
2018-12-17T08:17:21.994Z,101490.75
2018-12-17T08:19:52.630Z,101492.95
2018-12-17T08:22:23.355Z,101492.38
2018-12-17T08:24:53.846Z,101491.23
2018-12-17T08:27:24.314Z,101495.91
2018-12-17T08:29:54.863Z,101499.58
2018-12-17T08:32:25.486Z,101505.67
2018-12-17T08:34:55.984Z,101506.27
2018-12-17T08:37:26.482Z,101507.70
2018-12-17T08:39:56.975Z,101510.97
2018-12-17T08:42:27.509Z,101523.95
2018-12-17T08:44:58.018Z,101529.98
2018-12-17T08:47:28.529Z,101522.50
2018-12-17T08:49:59.015Z,101519.47
2018-12-17T08:52:30.443Z,101525.27
2018-12-17T08:55:01.212Z,101527.74
2018-12-17T08:57:37.817Z,101530.16
2018-12-17T09:00:10.775Z,101532.20
2018-12-17T09:02:37.277Z,101541.77
2018-12-17T09:05:07.802Z,101524.88
2018-12-17T09:07:38.572Z,101531.11
2018-12-17T09:10:09.576Z,101525.44
2018-12-17T09:12:40.088Z,101529.38
2018-12-17T09:15:10.584Z,101552.14
2018-12-17T09:17:41.170Z,101537.96
2018-12-17T09:20:11.673Z,101544.09
2018-12-17T09:22:42.220Z,101543.29
2018-12-17T09:25:12.729Z,101537.25
2018-12-17T09:27:43.356Z,101544.96
2018-12-17T09:30:20.591Z,101546.08
2018-12-17T09:32:51.332Z,101539.83
2018-12-17T09:35:21.815Z,101551.95
2018-12-17T09:37:52.337Z,101556.16
2018-12-17T09:40:22.824Z,101553.45
2018-12-17T09:42:53.417Z,101554.17
2018-12-17T09:45:23.925Z,101555.53
2018-12-17T09:47:54.452Z,101555.43
2018-12-17T09:50:24.994Z,101541.25
2018-12-17T09:52:55.555Z,101543.20
2018-12-17T09:55:26.274Z,101540.33
2018-12-17T09:57:56.785Z,101534.22
2018-12-17T10:00:27.830Z,101539.66
2018-12-17T10:02:58.323Z,101538.98
2018-12-17T10:05:28.878Z,101532.20
2018-12-17T10:08:00.562Z,101527.64
2018-12-17T10:10:31.426Z,101533.73
2018-12-17T10:13:02.295Z,101528.67
2018-12-17T10:15:32.986Z,101518.41
2018-12-17T10:18:03.785Z,101520.28
2018-12-17T10:20:39.007Z,101519.33
2018-12-17T10:23:10.827Z,101515.76
2018-12-17T10:25:42.396Z,101522.08
2018-12-17T10:28:12.931Z,101513.11
2018-12-17T10:30:43.757Z,101526.72
2018-12-17T10:33:14.223Z,101529.05
2018-12-17T10:35:44.791Z,101534.07
2018-12-17T10:38:15.399Z,101531.59
2018-12-17T10:40:45.966Z,101532.09
2018-12-17T10:43:16.655Z,101531.87
2018-12-17T10:45:47.186Z,101525.54
2018-12-17T10:48:17.815Z,101522.99
2018-12-17T10:50:49.417Z,101527.84
2018-12-17T10:53:19.949Z,101525.36
2018-12-17T10:55:50.550Z,101532.63
2018-12-17T10:58:21.122Z,101531.25
2018-12-17T11:00:56.819Z,101533.76
2018-12-17T11:03:31.532Z,101544.22
2018-12-17T11:06:05.672Z,101540.59
2018-12-17T11:08:36.323Z,101548.50
2018-12-17T11:11:06.855Z,101549.48
2018-12-17T11:13:37.978Z,101559.58
2018-12-17T11:16:08.598Z,101542.43
2018-12-17T11:18:39.280Z,101545.31
2018-12-17T11:21:09.901Z,101554.56
2018-12-17T11:23:40.488Z,101548.31
2018-12-17T11:26:10.997Z,101548.02
2018-12-17T11:28:41.883Z,101556.06
2018-12-17T11:31:12.385Z,101555.87
2018-12-17T11:33:42.996Z,101545.86
2018-12-17T11:36:14.108Z,101551.79
2018-12-17T11:38:44.634Z,101555.70
2018-12-17T11:41:16.257Z,101555.55
2018-12-17T11:43:46.823Z,101549.66
2018-12-17T11:46:18.834Z,101554.96
2018-12-17T11:48:49.455Z,101554.84
2018-12-17T11:51:19.950Z,101553.33
2018-12-17T11:53:50.463Z,101570.77
2018-12-17T11:56:21.933Z,101552.48
2018-12-17T11:58:52.437Z,101559.75
2018-12-17T12:01:25.929Z,101552.76
2018-12-17T12:03:56.532Z,101555.97
2018-12-17T12:06:27.069Z,101543.78
2018-12-17T12:08:57.595Z,101559.95
2018-12-17T12:11:28.093Z,101561.09
2018-12-17T12:13:58.702Z,101552.13
2018-12-17T12:16:29.191Z,101557.80
2018-12-17T12:18:59.695Z,101559.52
2018-12-17T12:21:30.263Z,101556.96
2018-12-17T12:24:00.892Z,101558.58
2018-12-17T12:26:31.510Z,101552.73
2018-12-17T12:29:03.469Z,101567.36
2018-12-17T12:31:34.833Z,101562.63
2018-12-17T12:34:05.635Z,101569.70
2018-12-17T12:36:36.114Z,101581.78
2018-12-17T12:39:08.766Z,101589.64
2018-12-17T12:41:42.179Z,101589.61
2018-12-17T12:44:12.825Z,101592.99
2018-12-17T12:46:43.386Z,101588.53
2018-12-17T12:49:15.016Z,101593.45
2018-12-17T12:51:45.509Z,101593.70
2018-12-17T12:54:16.080Z,101596.84
2018-12-17T12:56:46.735Z,101596.78
2018-12-17T12:59:17.464Z,101603.56
2018-12-17T13:01:47.970Z,101601.98
2018-12-17T13:04:18.579Z,101606.95
2018-12-17T13:06:49.219Z,101612.63
2018-12-17T13:09:22.864Z,101609.09
2018-12-17T13:11:53.414Z,101611.24
2018-12-17T13:14:24.038Z,101617.34
2018-12-17T13:17:05.481Z,101614.88
2018-12-17T13:19:35.930Z,101623.96
2018-12-17T13:22:06.453Z,101622.70
2018-12-17T13:24:36.934Z,101621.15
2018-12-17T13:27:07.485Z,101618.04
2018-12-17T13:29:38.073Z,101625.12
2018-12-17T13:32:08.602Z,101629.55
2018-12-17T13:34:39.103Z,101639.97
2018-12-17T13:37:09.581Z,101636.66
2018-12-17T13:39:41.021Z,101640.66
2018-12-17T13:42:12.776Z,101642.99
2018-12-17T13:44:43.329Z,101646.86
2018-12-17T13:47:13.845Z,101652.00
2018-12-17T13:49:51.805Z,101651.70
2018-12-17T13:52:27.534Z,101655.72
2018-12-17T13:54:58.097Z,101651.78
2018-12-17T13:57:28.615Z,101662.57
2018-12-17T13:59:59.103Z,101668.22
2018-12-17T14:02:29.580Z,101670.20
2018-12-17T14:05:00.090Z,101670.86
2018-12-17T14:07:30.641Z,101674.09
2018-12-17T14:11:06.523Z,101675.74
2018-12-17T14:13:37.017Z,101677.64
2018-12-17T14:16:12.831Z,101683.91
2018-12-17T14:18:49.658Z,101689.47
2018-12-17T14:21:25.303Z,101691.87
2018-12-17T14:23:57.423Z,101693.73
2018-12-17T14:26:28.142Z,101698.31
2018-12-17T14:28:58.945Z,101700.12
2018-12-17T14:31:33.020Z,101701.67
2018-12-17T14:34:03.990Z,101704.50
2018-12-17T14:36:34.538Z,101703.70
2018-12-17T14:39:06.822Z,101702.52
2018-12-17T14:41:38.830Z,101701.30
2018-12-17T14:44:14.495Z,101704.14
2018-12-17T14:46:50.247Z,101709.74
2018-12-17T14:49:21.116Z,101713.70
2018-12-17T14:51:51.741Z,101715.16
2018-12-17T14:54:22.237Z,101724.34
2018-12-17T14:56:52.774Z,101728.86
2018-12-17T14:59:24.041Z,101725.96
2018-12-17T15:01:54.560Z,101729.13
2018-12-17T15:04:25.073Z,101731.11
2018-12-17T15:06:55.589Z,101719.91
2018-12-17T15:09:26.114Z,101722.42
2018-12-17T15:11:56.661Z,101725.06
2018-12-17T15:14:27.284Z,101727.30
2018-12-17T15:16:57.794Z,101725.77
2018-12-17T15:19:28.297Z,101731.23
2018-12-17T15:21:58.785Z,101734.90
2018-12-17T15:24:29.306Z,101737.78
2018-12-17T15:26:59.870Z,101744.57
2018-12-17T15:29:30.449Z,101749.06
2018-12-17T15:32:03.832Z,101750.19
2018-12-17T15:34:34.494Z,101754.90
2018-12-17T15:37:06.858Z,101752.84
2018-12-17T15:39:37.570Z,101756.83
2018-12-17T15:42:08.537Z,101760.57
2018-12-17T15:44:39.144Z,101758.91
2018-12-17T15:47:09.779Z,101759.66
2018-12-17T15:49:40.369Z,101768.77
2018-12-17T15:52:10.897Z,101777.64
2018-12-17T15:54:41.582Z,101772.45
2018-12-17T15:57:12.286Z,101781.20
2018-12-17T15:59:42.937Z,101772.75
2018-12-17T16:02:13.513Z,101784.62
2018-12-17T16:04:44.086Z,101780.72
2018-12-17T16:07:14.724Z,101780.40
2018-12-17T16:09:54.376Z,101772.41
2018-12-17T16:12:25.257Z,101774.31
2018-12-17T16:14:55.886Z,101786.37
2018-12-17T16:17:26.551Z,101792.50
2018-12-17T16:19:57.233Z,101787.89
2018-12-17T16:22:28.079Z,101786.83
2018-12-17T16:24:58.750Z,101789.23
2018-12-17T16:27:29.736Z,101804.11
2018-12-17T16:30:00.281Z,101795.30
2018-12-17T16:32:30.838Z,101790.62
2018-12-17T16:35:01.518Z,101796.72
2018-12-17T16:37:32.410Z,101797.36
2018-12-17T16:40:03.128Z,101811.73
2018-12-17T16:42:33.694Z,101801.25
2018-12-17T16:45:04.712Z,101807.55
2018-12-17T16:47:35.172Z,101805.98
2018-12-17T16:50:08.301Z,101820.48
2018-12-17T16:52:39.110Z,101822.05
2018-12-17T16:55:09.589Z,101821.22
2018-12-17T16:57:40.371Z,101818.95
2018-12-17T17:00:11.065Z,101819.38
2018-12-17T17:02:42.209Z,101822.29
2018-12-17T17:05:14.358Z,101822.20
2018-12-17T17:07:44.977Z,101827.23
2018-12-17T17:10:15.598Z,101830.86
2018-12-17T17:12:46.132Z,101828.95
2018-12-17T17:15:17.118Z,101834.53
2018-12-17T17:17:47.664Z,101819.47
2018-12-17T17:20:19.802Z,101818.24
2018-12-17T17:22:50.849Z,101829.34
2018-12-17T17:25:21.693Z,101827.81
2018-12-17T17:27:52.303Z,101833.32
2018-12-17T17:30:23.030Z,101835.45
2018-12-17T17:32:54.213Z,101837.98
2018-12-17T17:35:24.895Z,101855.04
2018-12-17T17:37:55.496Z,101858.06
2018-12-17T17:40:26.064Z,101856.09
2018-12-17T17:42:56.701Z,101869.81
2018-12-17T17:45:27.397Z,101870.62
2018-12-17T17:47:58.132Z,101880.34
2018-12-17T17:50:29.174Z,101875.80
2018-12-17T17:52:59.763Z,101871.80
2018-12-17T17:55:30.333Z,101879.78
2018-12-17T17:58:00.878Z,101882.89
2018-12-17T18:00:31.522Z,101878.11
2018-12-17T18:03:02.102Z,101879.18
2018-12-17T18:05:32.679Z,101880.77
2018-12-17T21:02:08.563Z,102020.94
2018-12-17T21:04:39.996Z,102031.42
2018-12-17T21:07:11.518Z,102037.65
2018-12-17T21:09:45.260Z,102026.08
2018-12-17T21:12:16.309Z,102028.39
2018-12-17T21:14:58.285Z,102037.01
2018-12-17T21:33:50.885Z,102029.47
2018-12-17T21:36:21.478Z,102030.08
2018-12-17T21:42:02.695Z,102028.05
2018-12-17T21:44:33.258Z,102032.42
2018-12-17T21:47:03.977Z,102034.45
2018-12-17T21:49:34.567Z,102034.95
2018-12-17T21:52:05.241Z,102039.48
2018-12-17T21:54:35.827Z,102028.92
2018-12-17T21:57:06.481Z,102049.27
2018-12-17T21:59:37.057Z,102055.08
2018-12-17T22:02:07.868Z,102046.41
2018-12-17T22:04:38.535Z,102053.45
2018-12-17T22:07:10.485Z,102044.78
2018-12-17T22:09:41.204Z,102037.72
2018-12-17T22:12:11.671Z,102048.68
2018-12-17T22:14:42.378Z,102056.70
2018-12-17T22:17:13.114Z,102054.48
2018-12-17T22:19:43.782Z,102050.73
2018-12-17T22:22:14.705Z,102049.84
2018-12-17T22:24:45.287Z,102041.06
2018-12-17T22:27:15.837Z,102041.16
2018-12-17T22:29:46.558Z,102040.07
2018-12-17T22:32:17.175Z,102043.36
2018-12-17T22:34:47.777Z,102043.02
2018-12-17T22:37:18.330Z,102038.73
2018-12-17T22:39:48.958Z,102032.38
2018-12-17T22:42:19.525Z,102036.08
2018-12-17T22:44:50.044Z,102032.98
2018-12-17T22:47:20.754Z,102037.08
2018-12-17T22:49:51.789Z,102034.92
2018-12-17T22:52:22.324Z,102035.03
2018-12-17T22:54:52.958Z,102031.93
2018-12-17T22:57:23.488Z,102018.59
2018-12-17T22:59:54.103Z,102026.23
2018-12-17T23:02:24.629Z,102030.05
2018-12-17T23:04:58.051Z,102034.60
2018-12-17T23:07:32.872Z,102029.33
2018-12-17T23:10:21.265Z,102033.16
2018-12-17T23:13:08.664Z,102041.37
2018-12-17T23:15:55.869Z,102037.12
2018-12-17T23:21:06.927Z,102038.05
2018-12-17T23:23:39.591Z,102029.36
2018-12-17T23:26:11.409Z,102025.71
2018-12-17T23:28:42.118Z,102027.73
2018-12-17T23:31:12.702Z,102028.92
2018-12-17T23:33:43.234Z,102030.80
2018-12-17T23:36:13.763Z,102019.63
2018-12-17T23:38:44.255Z,102019.38
2018-12-17T23:41:14.795Z,102013.55
2018-12-17T23:43:45.314Z,102022.03
2018-12-17T23:46:15.857Z,102025.92
2018-12-17T23:48:46.334Z,102023.93
2018-12-17T23:51:17.298Z,102025.33
2018-12-17T23:53:48.908Z,102027.23
2018-12-17T23:56:19.614Z,102027.92
2018-12-17T23:58:50.164Z,102029.89
